Observation data for Dimmitt on 11/16/2019      Previous  Date       Current Mesonet Observations  Soil Data  Daily Summary Page  Observations in Plain Language
KDMS 160600Z 20011KT 04/M03 A3015 RMK A01 T00411028  RH  061%=      5-min Rain = 0
KDMS 160605Z 20012KT 04/M03 A3015 RMK A01 T00421027  RH  061%=      5-min Rain = 0
KDMS 160610Z 20011KT 04/M03 A3015 RMK A01 T00401027  RH  062%=      5-min Rain = 0
KDMS 160615Z 20012KT 04/M03 A3015 RMK A01 T00411027  RH  062%=      5-min Rain = 0
KDMS 160620Z 20012KT 04/M03 A3015 RMK A01 T00391028  RH  062%=      5-min Rain = 0
KDMS 160625Z 20013KT 04/M03 A3014 RMK A01 T00401027  RH  062%=      5-min Rain = 0
KDMS 160630Z 20012KT 04/M03 A3014 RMK A01 T00391027  RH  062%=      5-min Rain = 0
KDMS 160635Z 20012KT 04/M03 A3014 RMK A01 T00391026  RH  063%=      5-min Rain = 0
KDMS 160640Z 20013KT 04/M03 A3014 RMK A01 T00411025  RH  063%=      5-min Rain = 0
KDMS 160645Z 20011KT 04/M03 A3014 RMK A01 T00391026  RH  063%=      5-min Rain = 0
KDMS 160650Z 20012KT 04/M03 A3014 RMK A01 T00351026  RH  065%=      5-min Rain = 0
KDMS 160655Z 20012KT 04/M03 A3014 RMK A01 T00351026  RH  065%=      5-min Rain = 0
KDMS 160700Z 20011KT 03/M03 A3014 RMK A01 T00331027  RH  065%=      5-min Rain = 0
KDMS 160705Z 20011KT 03/M03 A3014 RMK A01 T00281029  RH  067%=      5-min Rain = 0
KDMS 160710Z 20011KT 02/M03 A3014 RMK A01 T00241029  RH  068%=      5-min Rain = 0
KDMS 160715Z 20012KT 03/M03 A3013 RMK A01 T00281027  RH  068%=      5-min Rain = 0
KDMS 160720Z 20012KT 03/M03 A3013 RMK A01 T00301026  RH  067%=      5-min Rain = 0
KDMS 160725Z 20011KT 03/M03 A3013 RMK A01 T00311025  RH  067%=      5-min Rain = 0
KDMS 160730Z 21010KT 03/M02 A3013 RMK A01 T00321023  RH  068%=      5-min Rain = 0
KDMS 160735Z 21012KT 04/M02 A3013 RMK A01 T00361021  RH  067%=      5-min Rain = 0
KDMS 160740Z 21012KT 04/M02 A3013 RMK A01 T00371021  RH  066%=      5-min Rain = 0
KDMS 160745Z 21011KT 03/M02 A3013 RMK A01 T00341023  RH  067%=      5-min Rain = 0
KDMS 160750Z 21011KT 03/M02 A3013 RMK A01 T00311023  RH  068%=      5-min Rain = 0
KDMS 160755Z 21011KT 03/M02 A3013 RMK A01 T00291023  RH  069%=      5-min Rain = 0
KDMS 160800Z 21012KT 03/M02 A3013 RMK A01 T00291021  RH  070%=      5-min Rain = 0
KDMS 160805Z 21012KT 03/M02 A3012 RMK A01 T00321019  RH  070%=      5-min Rain = 0
KDMS 160810Z 22012KT 03/M02 A3012 RMK A01 T00331019  RH  070%=      5-min Rain = 0
KDMS 160815Z 22013KT 03/M02 A3012 RMK A01 T00331019  RH  070%=      5-min Rain = 0
KDMS 160820Z 21013KT 03/M02 A3012 RMK A01 T00321019  RH  070%=      5-min Rain = 0
KDMS 160825Z 21013KT 03/M02 A3012 RMK A01 T00321018  RH  070%=      5-min Rain = 0
KDMS 160830Z 21012KT 03/M02 A3012 RMK A01 T00321018  RH  070%=      5-min Rain = 0
KDMS 160835Z 21012KT 03/M02 A3011 RMK A01 T00321018  RH  070%=      5-min Rain = 0
KDMS 160840Z 21012KT 03/M02 A3012 RMK A01 T00331017  RH  070%=      5-min Rain = 0
KDMS 160845Z 21011KT 03/M02 A3012 RMK A01 T00331017  RH  071%=      5-min Rain = 0
KDMS 160850Z 21010KT 03/M02 A3012 RMK A01 T00311017  RH  071%=      5-min Rain = 0
KDMS 160855Z 21010KT 03/M02 A3011 RMK A01 T00301017  RH  072%=      5-min Rain = 0
KDMS 160900Z 21010KT 03/M02 A3011 RMK A01 T00291017  RH  072%=      5-min Rain = 0
KDMS 160905Z 21010KT 03/M02 A3011 RMK A01 T00291017  RH  072%=      5-min Rain = 0
KDMS 160910Z 21010KT 03/M02 A3011 RMK A01 T00291017  RH  072%=      5-min Rain = 0
KDMS 160915Z 22010KT 03/M02 A3011 RMK A01 T00291017  RH  072%=      5-min Rain = 0
KDMS 160920Z 21010KT 03/M02 A3011 RMK A01 T00291016  RH  073%=      5-min Rain = 0
KDMS 160925Z 22010KT 03/M02 A3011 RMK A01 T00311016  RH  072%=      5-min Rain = 0
KDMS 160930Z 22011KT 03/M02 A3011 RMK A01 T00311016  RH  072%=      5-min Rain = 0
KDMS 160935Z 22011KT 03/M02 A3011 RMK A01 T00311016  RH  072%=      5-min Rain = 0
KDMS 160940Z 22010KT 03/M02 A3011 RMK A01 T00301016  RH  073%=      5-min Rain = 0
KDMS 160945Z 22011KT 03/M02 A301 RMK A01 T00301015  RH  073%=      5-min Rain = 0
KDMS 160950Z 22011KT 03/M02 A301 RMK A01 T00311015  RH  072%=      5-min Rain = 0
KDMS 160955Z 22011KT 03/M01 A301 RMK A01 T00321014  RH  072%=      5-min Rain = 0
KDMS 161000Z 22012KT 03/M01 A301 RMK A01 T00321014  RH  072%=      5-min Rain = 0
KDMS 161005Z 22012KT 03/M01 A301 RMK A01 T00321014  RH  072%=      5-min Rain = 0
KDMS 161010Z 22011KT 03/M01 A301 RMK A01 T00321014  RH  073%=      5-min Rain = 0
KDMS 161015Z 22011KT 03/M01 A301 RMK A01 T00311014  RH  073%=      5-min Rain = 0
KDMS 161020Z 22011KT 03/M01 A301 RMK A01 T00311013  RH  073%=      5-min Rain = 0
KDMS 161025Z 22011KT 03/M01 A301 RMK A01 T00321013  RH  073%=      5-min Rain = 0
KDMS 161030Z 22011KT 03/M01 A301 RMK A01 T00331012  RH  073%=      5-min Rain = 0
KDMS 161035Z 22011KT 03/M01 A301 RMK A01 T00341011  RH  073%=      5-min Rain = 0
KDMS 161040Z 22012KT 04/M01 A3009 RMK A01 T00361011  RH  072%=      5-min Rain = 0
KDMS 161045Z 22011KT 03/M01 A3009 RMK A01 T00341011  RH  073%=      5-min Rain = 0
KDMS 161050Z 21012KT 04/M01 A3009 RMK A01 T00351011  RH  073%=      5-min Rain = 0
KDMS 161055Z 22012KT 04/M01 A3009 RMK A01 T00351011  RH  073%=      5-min Rain = 0
KDMS 161100Z 22011KT 03/M01 A3009 RMK A01 T00341011  RH  073%=      5-min Rain = 0
KDMS 161105Z 22011KT 03/M01 A3009 RMK A01 T00341011  RH  073%=      5-min Rain = 0
KDMS 161110Z 22010KT 03/M01 A3009 RMK A01 T00331011  RH  074%=      5-min Rain = 0
KDMS 161115Z 21011KT 03/M01 A3009 RMK A01 T00321010  RH  074%=      5-min Rain = 0
KDMS 161120Z 21012KT 04/M01 A3009 RMK A01 T00351010  RH  073%=      5-min Rain = 0
KDMS 161125Z 21010KT 03/M01 A3009 RMK A01 T00321011  RH  074%=      5-min Rain = 0
KDMS 161130Z 21011KT 03/M01 A3009 RMK A01 T00301011  RH  075%=      5-min Rain = 0
KDMS 161135Z 21009KT 03/M01 A3009 RMK A01 T00271012  RH  076%=      5-min Rain = 0
KDMS 161140Z 21008KT 03/M01 A3009 RMK A01 T00261012  RH  077%=      5-min Rain = 0
KDMS 161145Z 20008KT 02/M01 A3009 RMK A01 T00231013  RH  077%=      5-min Rain = 0
KDMS 161150Z 20009KT 02/M01 A3009 RMK A01 T00211014  RH  078%=      5-min Rain = 0
KDMS 161155Z 20010KT 02/M02 A3008 RMK A01 T00191015  RH  079%=      5-min Rain = 0
KDMS 161200Z 20010KT 02/M02 A3008 RMK A01 T00191015  RH  079%=      5-min Rain = 0
KDMS 161205Z 20008KT 02/M02 A3008 RMK A01 T00171016  RH  079%=      5-min Rain = 0
KDMS 161210Z 19008KT 01/M02 A3008 RMK A01 T00131018  RH  080%=      5-min Rain = 0
KDMS 161215Z 19008KT 01/M02 A3008 RMK A01 T00101019  RH  082%=      5-min Rain = 0
KDMS 161220Z 19008KT 01/M02 A3008 RMK A01 T00081020  RH  082%=      5-min Rain = 0
KDMS 161225Z 19007KT 01/M02 A3008 RMK A01 T00061021  RH  083%=      5-min Rain = 0
KDMS 161230Z 19007KT 01/M02 A3008 RMK A01 T00051020  RH  084%=      5-min Rain = 0
KDMS 161235Z 19008KT 01/M02 A3008 RMK A01 T00061020  RH  084%=      5-min Rain = 0
KDMS 161240Z 20009KT 01/M01 A3008 RMK A01 T00121014  RH  083%=      5-min Rain = 0
KDMS 161245Z 20011KT 02/M01 A3008 RMK A01 T00201012  RH  080%=      5-min Rain = 0
KDMS 161250Z 20012KT 02/M01 A3008 RMK A01 T00221012  RH  079%=      5-min Rain = 0
KDMS 161255Z 20012KT 02/M01 A3008 RMK A01 T00231011  RH  079%=      5-min Rain = 0
KDMS 161300Z 20011KT 02/M01 A3008 RMK A01 T00241011  RH  079%=      5-min Rain = 0
KDMS 161305Z 20011KT 03/M01 A3008 RMK A01 T00251010  RH  078%=      5-min Rain = 0
KDMS 161310Z 20011KT 02/M01 A3008 RMK A01 T00241011  RH  079%=      5-min Rain = 0
KDMS 161315Z 20011KT 02/M01 A3008 RMK A01 T00241011  RH  079%=      5-min Rain = 0
KDMS 161320Z 20010KT 03/M01 A3008 RMK A01 T00251010  RH  078%=      5-min Rain = 0
KDMS 161325Z 20011KT 03/M01 A3008 RMK A01 T00251010  RH  078%=      5-min Rain = 0
KDMS 161330Z 20012KT 03/M01 A3009 RMK A01 T00261010  RH  078%=      5-min Rain = 0
KDMS 161335Z 20010KT 03/M01 A3009 RMK A01 T00251010  RH  079%=      5-min Rain = 0
KDMS 161340Z 21009KT 03/M01 A3008 RMK A01 T00251009  RH  079%=      5-min Rain = 0
KDMS 161345Z 21008KT 03/M01 A3008 RMK A01 T00261008  RH  079%=      5-min Rain = 0
KDMS 161350Z 22009KT 03/M01 A3008 RMK A01 T00291006  RH  079%=      5-min Rain = 0
KDMS 161355Z 21008KT 03/M01 A3009 RMK A01 T00291007  RH  078%=      5-min Rain = 0
KDMS 161400Z 21009KT 03/M01 A3009 RMK A01 T00291006  RH  078%=      5-min Rain = 0
KDMS 161405Z 21010KT 03/M01 A3009 RMK A01 T00301006  RH  078%=      5-min Rain = 0
KDMS 161410Z 21010KT 03/M01 A3009 RMK A01 T00321005  RH  078%=      5-min Rain = 0
KDMS 161415Z 21011KT 03/M00 A3009 RMK A01 T00331004  RH  077%=      5-min Rain = 0
KDMS 161420Z 21010KT 04/M00 A3009 RMK A01 T00351003  RH  077%=      5-min Rain = 0
KDMS 161425Z 21010KT 04/M00 A3009 RMK A01 T00381002  RH  076%=      5-min Rain = 0
KDMS 161430Z 21011KT 04/M00 A3009 RMK A01 T00381002  RH  076%=      5-min Rain = 0
KDMS 161435Z 21012KT 04/M00 A3009 RMK A01 T00391002  RH  075%=      5-min Rain = 0
KDMS 161440Z 21010KT 04/00 A3009 RMK A01 T00430000  RH  075%=      5-min Rain = 0
KDMS 161445Z 21010KT 04/00 A3009 RMK A01 T00440001  RH  074%=      5-min Rain = 0
KDMS 161450Z 21010KT 05/00 A3008 RMK A01 T00450001  RH  074%=      5-min Rain = 0
KDMS 161455Z 20010KT 05/00 A3008 RMK A01 T00450001  RH  074%=      5-min Rain = 0
KDMS 161500Z 20010KT 05/00 A3008 RMK A01 T00460002  RH  074%=      5-min Rain = 0
KDMS 161505Z 21010KT 05/00 A3008 RMK A01 T00500004  RH  073%=      5-min Rain = 0
KDMS 161510Z 21011KT 05/01 A3008 RMK A01 T00540005  RH  072%=      5-min Rain = 0
KDMS 161515Z 21012KT 06/01 A3008 RMK A01 T00590007  RH  070%=      5-min Rain = 0
KDMS 161520Z 21013KT 06/01 A3007 RMK A01 T00630008  RH  069%=      5-min Rain = 0
KDMS 161525Z 21014KT 07/01 A3008 RMK A01 T00660009  RH  068%=      5-min Rain = 0
KDMS 161530Z 20012KT 07/01 A3007 RMK A01 T00690012  RH  068%=      5-min Rain = 0
KDMS 161535Z 20012KT 07/02 A3007 RMK A01 T00730015  RH  067%=      5-min Rain = 0
KDMS 161540Z 21012KT 08/02 A3007 RMK A01 T00790016  RH  066%=      5-min Rain = 0
KDMS 161545Z 20012KT 09/02 A3007 RMK A01 T00850018  RH  064%=      5-min Rain = 0
KDMS 161550Z 21011KT 09/02 A3007 RMK A01 T00900019  RH  062%=      5-min Rain = 0
KDMS 161555Z 20012KT 09/02 A3007 RMK A01 T00920018  RH  061%=      5-min Rain = 0
KDMS 161600Z 21012KT 09/02 A3007 RMK A01 T00930017  RH  060%=      5-min Rain = 0
KDMS 161605Z 21011KT 10/02 A3007 RMK A01 T00950019  RH  060%=      5-min Rain = 0
KDMS 161610Z 21012KT 10/02 A3007 RMK A01 T00950016  RH  059%=      5-min Rain = 0
KDMS 161615Z 22011KT 10/02 A3007 RMK A01 T00990019  RH  058%=      5-min Rain = 0
KDMS 161620Z 21012KT 10/02 A3007 RMK A01 T01010019  RH  057%=      5-min Rain = 0
KDMS 161625Z 22012KT 11/02 A3007 RMK A01 T01060020  RH  056%=      5-min Rain = 0
KDMS 161630Z 21014KT 11/02 A3007 RMK A01 T01060016  RH  055%=      5-min Rain = 0
KDMS 161635Z 21015KT 11/02 A3006 RMK A01 T01080018  RH  055%=      5-min Rain = 0
KDMS 161640Z 22012KT 11/02 A3007 RMK A01 T01120022  RH  055%=      5-min Rain = 0
KDMS 161645Z 22013G18KT 12/02 A3006 RMK A01 T01150018  RH  052%=      5-min Rain = 0
KDMS 161650Z 22013KT 12/02 A3006 RMK A01 T01170017  RH  051%=      5-min Rain = 0
KDMS 161655Z 22013KT 12/02 A3006 RMK A01 T01200016  RH  049%=      5-min Rain = 0
KDMS 161700Z 22013KT 13/02 A3006 RMK A01 T01250018  RH  049%=      5-min Rain = 0
KDMS 161705Z 22013KT 13/02 A3006 RMK A01 T01290017  RH  047%=      5-min Rain = 0
KDMS 161710Z 21013KT 13/02 A3006 RMK A01 T01320018  RH  047%=      5-min Rain = 0
KDMS 161715Z 21012KT 14/02 A3006 RMK A01 T01390020  RH  045%=      5-min Rain = 0
KDMS 161720Z 21013KT 14/02 A3005 RMK A01 T01400015  RH  043%=      5-min Rain = 0
KDMS 161725Z 21014KT 14/02 A3005 RMK A01 T01420015  RH  043%=      5-min Rain = 0
KDMS 161730Z 21013KT 15/02 A3005 RMK A01 T01450015  RH  042%=      5-min Rain = 0
KDMS 161735Z 22014KT 15/01 A3004 RMK A01 T01450013  RH  041%=      5-min Rain = 0
KDMS 161740Z 21012KT 14/01 A3004 RMK A01 T01420014  RH  042%=      5-min Rain = 0
KDMS 161745Z 21010KT 15/02 A3004 RMK A01 T01490018  RH  042%=      5-min Rain = 0
KDMS 161750Z 21011G17KT 16/02 A3004 RMK A01 T01580018  RH  039%=      5-min Rain = 0
KDMS 161755Z 22012KT 16/01 A3003 RMK A01 T01610011  RH  037%=      5-min Rain = 0
KDMS 161800Z 21011KT 17/01 A3003 RMK A01 T01650014  RH  037%=      5-min Rain = 0
KDMS 161805Z 22013KT 17/01 A3003 RMK A01 T01650011  RH  036%=      5-min Rain = 0
KDMS 161810Z 22013KT 17/01 A3003 RMK A01 T01660013  RH  036%=      5-min Rain = 0
KDMS 161815Z 22013KT 17/01 A3002 RMK A01 T01650010  RH  035%=      5-min Rain = 0
KDMS 161820Z 21012KT 17/01 A3002 RMK A01 T01650012  RH  036%=      5-min Rain = 0
KDMS 161825Z 22013KT 17/01 A3001 RMK A01 T01690012  RH  035%=      5-min Rain = 0
KDMS 161830Z 21013KT 17/01 A3001 RMK A01 T01710013  RH  035%=      5-min Rain = 0
KDMS 161835Z 21011KT 18/02 A3001 RMK A01 T01750016  RH  035%=      5-min Rain = 0
KDMS 161840Z 21012KT 18/02 A30 RMK A01 T01770015  RH  034%=      5-min Rain = 0
KDMS 161845Z 21012KT 18/01 A30 RMK A01 T01770014  RH  034%=      5-min Rain = 0
KDMS 161850Z 21013KT 18/01 A30 RMK A01 T01780013  RH  034%=      5-min Rain = 0
KDMS 161855Z 20012KT 18/01 A2999 RMK A01 T01810014  RH  033%=      5-min Rain = 0
KDMS 161900Z 21013KT 18/01 A2999 RMK A01 T01820011  RH  032%=      5-min Rain = 0
KDMS 161905Z 21012KT 18/01 A2999 RMK A01 T01840013  RH  032%=      5-min Rain = 0
KDMS 161910Z 21012KT 19/01 A2998 RMK A01 T01860011  RH  031%=      5-min Rain = 0
KDMS 161915Z 20013KT 19/01 A2998 RMK A01 T01850008  RH  031%=      5-min Rain = 0
KDMS 161920Z 20013KT 19/01 A2997 RMK A01 T01850010  RH  031%=      5-min Rain = 0
KDMS 161925Z 20013KT 18/01 A2997 RMK A01 T01830006  RH  031%=      5-min Rain = 0
KDMS 161930Z 20013KT 18/01 A2997 RMK A01 T01830006  RH  031%=      5-min Rain = 0
KDMS 161935Z 20013KT 18/01 A2996 RMK A01 T01830006  RH  031%=      5-min Rain = 0
KDMS 161940Z 20012KT 19/00 A2996 RMK A01 T01850004  RH  030%=      5-min Rain = 0
KDMS 161945Z 19013KT 19/01 A2996 RMK A01 T01870007  RH  030%=      5-min Rain = 0
KDMS 161950Z 19015KT 19/00 A2996 RMK A01 T01880004  RH  029%=      5-min Rain = 0
KDMS 161955Z 20013G18KT 19/01 A2996 RMK A01 T01890005  RH  030%=      5-min Rain = 0
KDMS 162000Z 19014KT 19/01 A2995 RMK A01 T01900009  RH  030%=      5-min Rain = 0
KDMS 162005Z 19014G19KT 19/01 A2995 RMK A01 T01890007  RH  030%=      5-min Rain = 0
KDMS 162010Z 19014KT 19/01 A2995 RMK A01 T01890008  RH  030%=      5-min Rain = 0
KDMS 162015Z 19013KT 19/01 A2995 RMK A01 T01910013  RH  031%=      5-min Rain = 0
KDMS 162020Z 20013KT 19/01 A2995 RMK A01 T01930010  RH  030%=      5-min Rain = 0
KDMS 162025Z 19013KT 20/01 A2995 RMK A01 T01950012  RH  030%=      5-min Rain = 0
KDMS 162030Z 19014KT 20/01 A2994 RMK A01 T01960010  RH  029%=      5-min Rain = 0
KDMS 162035Z 19014KT 20/01 A2994 RMK A01 T01960011  RH  029%=      5-min Rain = 0
KDMS 162040Z 19013G18KT 20/01 A2994 RMK A01 T01960013  RH  030%=      5-min Rain = 0
KDMS 162045Z 20013KT 20/01 A2994 RMK A01 T01960012  RH  030%=      5-min Rain = 0
KDMS 162050Z 18014KT 19/01 A2994 RMK A01 T01930014  RH  031%=      5-min Rain = 0
KDMS 162055Z 18015KT 19/02 A2994 RMK A01 T01910016  RH  031%=      5-min Rain = 0
KDMS 162100Z 18016KT 19/02 A2994 RMK A01 T01890018  RH  032%=      5-min Rain = 0
KDMS 162105Z 18017KT 19/01 A2993 RMK A01 T01870014  RH  032%=      5-min Rain = 0
KDMS 162110Z 18015KT 19/02 A2993 RMK A01 T01860018  RH  033%=      5-min Rain = 0
KDMS 162115Z 18017KT 18/02 A2993 RMK A01 T01840017  RH  033%=      5-min Rain = 0
KDMS 162120Z 18017KT 18/02 A2993 RMK A01 T01820017  RH  033%=      5-min Rain = 0
KDMS 162125Z 18018KT 18/01 A2993 RMK A01 T01790014  RH  033%=      5-min Rain = 0
KDMS 162130Z 18017KT 18/01 A2993 RMK A01 T01780013  RH  034%=      5-min Rain = 0
KDMS 162135Z 18015KT 18/02 A2993 RMK A01 T01780016  RH  034%=      5-min Rain = 0
KDMS 162140Z 18016G21KT 18/01 A2993 RMK A01 T01790013  RH  033%=      5-min Rain = 0
KDMS 162145Z 18014KT 18/02 A2993 RMK A01 T01790015  RH  034%=      5-min Rain = 0
KDMS 162150Z 18015KT 18/01 A2993 RMK A01 T01790012  RH  033%=      5-min Rain = 0
KDMS 162155Z 18014KT 18/02 A2993 RMK A01 T01810015  RH  033%=      5-min Rain = 0
KDMS 162200Z 18013KT 19/02 A2993 RMK A01 T01850015  RH  032%=      5-min Rain = 0
KDMS 162205Z 19014KT 19/01 A2994 RMK A01 T01870012  RH  031%=      5-min Rain = 0
KDMS 162210Z 18014KT 19/01 A2993 RMK A01 T01860012  RH  031%=      5-min Rain = 0
KDMS 162215Z 18014KT 19/01 A2993 RMK A01 T01850012  RH  032%=      5-min Rain = 0
KDMS 162220Z 18013KT 19/01 A2993 RMK A01 T01860011  RH  031%=      5-min Rain = 0
KDMS 162225Z 18013KT 19/01 A2993 RMK A01 T01890013  RH  031%=      5-min Rain = 0
KDMS 162230Z 18013KT 19/01 A2993 RMK A01 T01900013  RH  031%=      5-min Rain = 0
KDMS 162235Z 18015KT 19/01 A2993 RMK A01 T01870008  RH  030%=      5-min Rain = 0
KDMS 162240Z 18016KT 18/01 A2993 RMK A01 T01840010  RH  031%=      5-min Rain = 0
KDMS 162245Z 18015KT 18/01 A2993 RMK A01 T01800010  RH  032%=      5-min Rain = 0
KDMS 162250Z 18013G18KT 18/01 A2993 RMK A01 T01780012  RH  033%=      5-min Rain = 0
KDMS 162255Z 18013KT 18/01 A2993 RMK A01 T01750011  RH  033%=      5-min Rain = 0
KDMS 162300Z 18013KT 17/01 A2993 RMK A01 T01700012  RH  035%=      5-min Rain = 0
KDMS 162305Z 18012KT 16/01 A2994 RMK A01 T01630014  RH  037%=      5-min Rain = 0
KDMS 162310Z 18012KT 16/01 A2994 RMK A01 T01600014  RH  038%=      5-min Rain = 0
KDMS 162315Z 18012KT 16/01 A2994 RMK A01 T01580014  RH  038%=      5-min Rain = 0
KDMS 162320Z 17012KT 15/01 A2994 RMK A01 T01540013  RH  039%=      5-min Rain = 0
KDMS 162325Z 17011KT 15/01 A2994 RMK A01 T01490013  RH  040%=      5-min Rain = 0
KDMS 162330Z 17011KT 15/01 A2994 RMK A01 T01470013  RH  041%=      5-min Rain = 0
KDMS 162335Z 17011KT 14/01 A2994 RMK A01 T01440014  RH  042%=      5-min Rain = 0
KDMS 162340Z 17009KT 14/01 A2995 RMK A01 T01410014  RH  043%=      5-min Rain = 0
KDMS 162345Z 17010KT 14/01 A2995 RMK A01 T01380014  RH  043%=      5-min Rain = 0
KDMS 162350Z 18010KT 14/01 A2995 RMK A01 T01350014  RH  044%=      5-min Rain = 0
KDMS 162355Z 18010KT 13/02 A2995 RMK A01 T01320016  RH  046%=      5-min Rain = 0
KDMS 170000Z 18009KT 13/02 A2995 RMK A01 T01280017  RH  048%=      5-min Rain = 0
KDMS 170005Z 17008KT 13/02 A2995 RMK A01 T01260016  RH  048%=      5-min Rain = 0
KDMS 170010Z 17009KT 12/02 A2995 RMK A01 T01240015  RH  048%=      5-min Rain = 0
KDMS 170015Z 17010KT 12/01 A2995 RMK A01 T01230014  RH  048%=      5-min Rain = 0
KDMS 170020Z 17010KT 12/01 A2995 RMK A01 T01200014  RH  049%=      5-min Rain = 0
KDMS 170025Z 17009KT 11/01 A2995 RMK A01 T01140013  RH  050%=      5-min Rain = 0
KDMS 170030Z 17010KT 11/01 A2995 RMK A01 T01090013  RH  052%=      5-min Rain = 0
KDMS 170035Z 17009KT 11/01 A2995 RMK A01 T01100012  RH  052%=      5-min Rain = 0
KDMS 170040Z 17009KT 11/01 A2995 RMK A01 T01090012  RH  052%=      5-min Rain = 0
KDMS 170045Z 17010KT 11/01 A2995 RMK A01 T01090011  RH  051%=      5-min Rain = 0
KDMS 170050Z 17010KT 11/01 A2995 RMK A01 T01080010  RH  052%=      5-min Rain = 0
KDMS 170055Z 17011KT 11/01 A2995 RMK A01 T01050010  RH  053%=      5-min Rain = 0
KDMS 170100Z 17011KT 10/01 A2995 RMK A01 T01040009  RH  052%=      5-min Rain = 0
KDMS 170105Z 17010KT 10/01 A2995 RMK A01 T01030008  RH  053%=      5-min Rain = 0
KDMS 170110Z 17009KT 10/01 A2995 RMK A01 T01030009  RH  053%=      5-min Rain = 0
KDMS 170115Z 19007KT 10/01 A2996 RMK A01 T00990009  RH  054%=      5-min Rain = 0
KDMS 170120Z 19007KT 09/01 A2996 RMK A01 T00930009  RH  056%=      5-min Rain = 0
KDMS 170125Z 19008KT 09/01 A2996 RMK A01 T00910009  RH  057%=      5-min Rain = 0
KDMS 170130Z 18007KT 09/01 A2996 RMK A01 T00900009  RH  058%=      5-min Rain = 0
KDMS 170135Z 18008KT 09/01 A2996 RMK A01 T00890009  RH  058%=      5-min Rain = 0
KDMS 170140Z 18009KT 09/01 A2996 RMK A01 T00860009  RH  059%=      5-min Rain = 0
KDMS 170145Z 18009KT 08/01 A2997 RMK A01 T00830009  RH  060%=      5-min Rain = 0
KDMS 170150Z 18010KT 08/01 A2997 RMK A01 T00810007  RH  060%=      5-min Rain = 0
KDMS 170155Z 18009KT 08/01 A2997 RMK A01 T00800006  RH  060%=      5-min Rain = 0
KDMS 170200Z 17009KT 08/01 A2997 RMK A01 T00780005  RH  061%=      5-min Rain = 0
KDMS 170205Z 18010KT 08/01 A2996 RMK A01 T00760005  RH  062%=      5-min Rain = 0
KDMS 170210Z 18009KT 08/01 A2996 RMK A01 T00760006  RH  062%=      5-min Rain = 0
KDMS 170215Z 18009KT 08/01 A2997 RMK A01 T00750006  RH  062%=      5-min Rain = 0
KDMS 170220Z 18009KT 07/01 A2996 RMK A01 T00740007  RH  063%=      5-min Rain = 0
KDMS 170225Z 18010KT 07/01 A2996 RMK A01 T00740007  RH  063%=      5-min Rain = 0
KDMS 170230Z 18009KT 07/01 A2996 RMK A01 T00730007  RH  064%=      5-min Rain = 0
KDMS 170235Z 18008KT 07/01 A2996 RMK A01 T00720007  RH  064%=      5-min Rain = 0
KDMS 170240Z 18008KT 07/01 A2996 RMK A01 T00730006  RH  063%=      5-min Rain = 0
KDMS 170245Z 18009KT 08/01 A2996 RMK A01 T00760006  RH  062%=      5-min Rain = 0
KDMS 170250Z 18009KT 08/01 A2996 RMK A01 T00760006  RH  062%=      5-min Rain = 0
KDMS 170255Z 18010KT 08/01 A2995 RMK A01 T00770006  RH  061%=      5-min Rain = 0
KDMS 170300Z 18011KT 08/01 A2996 RMK A01 T00770007  RH  062%=      5-min Rain = 0
KDMS 170305Z 19011KT 08/01 A2996 RMK A01 T00800007  RH  061%=      5-min Rain = 0
KDMS 170310Z 19010KT 08/01 A2996 RMK A01 T00830007  RH  059%=      5-min Rain = 0
KDMS 170315Z 20011KT 09/01 A2996 RMK A01 T00860007  RH  058%=      5-min Rain = 0
KDMS 170320Z 20009KT 08/01 A2996 RMK A01 T00840007  RH  059%=      5-min Rain = 0
KDMS 170325Z 20010KT 09/01 A2996 RMK A01 T00850008  RH  059%=      5-min Rain = 0
KDMS 170330Z 20009KT 09/01 A2996 RMK A01 T00850007  RH  059%=      5-min Rain = 0
KDMS 170335Z 21007KT 08/01 A2997 RMK A01 T00830008  RH  060%=      5-min Rain = 0
KDMS 170340Z 23005KT 08/01 A2997 RMK A01 T00810009  RH  061%=      5-min Rain = 0
KDMS 170345Z 23006KT 08/01 A2997 RMK A01 T00790008  RH  062%=      5-min Rain = 0
KDMS 170350Z 22005KT 08/01 A2997 RMK A01 T00790007  RH  061%=      5-min Rain = 0
KDMS 170355Z 24004KT 08/01 A2997 RMK A01 T00770008  RH  062%=      5-min Rain = 0
KDMS 170400Z 23004KT 08/01 A2997 RMK A01 T00760007  RH  063%=      5-min Rain = 0
KDMS 170405Z 23004KT 08/01 A2997 RMK A01 T00750006  RH  062%=      5-min Rain = 0
KDMS 170410Z 23004KT 07/01 A2997 RMK A01 T00720006  RH  063%=      5-min Rain = 0
KDMS 170415Z 22004KT 07/01 A2997 RMK A01 T00720006  RH  064%=      5-min Rain = 0
KDMS 170420Z 22004KT 07/01 A2997 RMK A01 T00730009  RH  065%=      5-min Rain = 0
KDMS 170425Z 21005KT 07/01 A2998 RMK A01 T00700010  RH  066%=      5-min Rain = 0
KDMS 170430Z 22005KT 07/01 A2998 RMK A01 T00700010  RH  067%=      5-min Rain = 0
KDMS 170435Z 22005KT 07/01 A2998 RMK A01 T00710011  RH  066%=      5-min Rain = 0
KDMS 170440Z 22005KT 07/01 A2998 RMK A01 T00720012  RH  067%=      5-min Rain = 0
KDMS 170445Z 22005KT 07/01 A2998 RMK A01 T00710011  RH  067%=      5-min Rain = 0
KDMS 170450Z 22005KT 07/01 A2998 RMK A01 T00690011  RH  068%=      5-min Rain = 0
KDMS 170455Z 23005KT 07/01 A2997 RMK A01 T00700011  RH  067%=      5-min Rain = 0
KDMS 170500Z 24005KT 07/01 A2997 RMK A01 T00730012  RH  066%=      5-min Rain = 0
KDMS 170505Z 25006KT 08/01 A2997 RMK A01 T00750010  RH  064%=      5-min Rain = 0
KDMS 170510Z 26005KT 08/01 A2996 RMK A01 T00790009  RH  062%=      5-min Rain = 0
KDMS 170515Z 26004KT 08/01 A2996 RMK A01 T00800010  RH  062%=      5-min Rain = 0
KDMS 170520Z 27003KT 08/01 A2996 RMK A01 T00790009  RH  062%=      5-min Rain = 0
KDMS 170525Z 29005KT 08/01 A2996 RMK A01 T00770007  RH  062%=      5-min Rain = 0
KDMS 170530Z 31005KT 07/01 A2996 RMK A01 T00710007  RH  065%=      5-min Rain = 0
KDMS 170535Z 33004KT 07/01 A2997 RMK A01 T00650008  RH  068%=      5-min Rain = 0
KDMS 170540Z 32002KT 07/01 A2997 RMK A01 T00650008  RH  068%=      5-min Rain = 0
KDMS 170545Z 28001KT 07/01 A2998 RMK A01 T00650007  RH  068%=      5-min Rain = 0
KDMS 170550Z 22002KT 07/01 A2998 RMK A01 T00670007  RH  066%=      5-min Rain = 0
KDMS 170555Z 21004KT 07/01 A2998 RMK A01 T00700006  RH  064%=      5-min Rain = 0

Page generated in 0.01 seconds.